Albany (ALB/KALB)

Map

Destinations

Information

Location
Albany, NY
Local Time
02:30 / 2:30 am
GMT Time
07:30 / 7:30 am
Gates
No FAA reported delays
METAR KALB 200651Z 17008KT 10SM BKN160 BKN180 OVC220 M02/M08 A2980 RMK AO2 SLP096 T10221083
TAF KALB 200532Z 2006/2106 18012KT P6SM BKN200 FM200900 19013KT P6SM BKN200 WS020/26040KT FM201400 25015G25KT P6SM FEW035 BKN150 FM201800 28016G28KT P6SM FEW035 BKN150 FM210000 29010KT P6SM BKN035